Time;durP1;ratioP1;P1;durP2;ratioP2;P2;SDS_P1;SDS_P2;PMS_P1;PMS_P2;Temp;Humidity;BMP_temperature;BMP_pressure;BME280_temperature;BME280_humidity;BME280_pressure;Samples;Min_cycle;Max_cycle;Signal;HPM_P1;HPM_P2
2022/04/29 00:02:09;;;;;;;9.52;7.95;;;;;;;10.48;87.93;63076.22;5104351;28;20451;-76
2022/04/29 00:04:37;;;;;;;10.15;8.57;;;;;;;10.41;89.00;63074.59;5104231;28;20439;-76
2022/04/29 00:07:06;;;;;;;9.80;7.95;;;;;;;10.41;88.98;63074.06;5093238;28;20209;-75
2022/04/29 00:09:34;;;;;;;12.20;9.18;;;;;;;10.40;89.26;63068.47;5089123;28;20227;-75
2022/04/29 00:12:02;;;;;;;10.02;8.75;;;;;;;10.42;89.17;63072.56;5104853;28;20242;-75
2022/04/29 00:14:29;;;;;;;13.68;8.77;;;;;;;10.42;89.58;63073.06;5089309;28;20200;-75
2022/04/29 00:16:56;;;;;;;9.90;8.15;;;;;;;10.53;88.60;63086.00;5083557;28;20687;-74
2022/04/29 00:19:23;;;;;;;9.85;8.57;;;;;;;10.40;89.58;63071.03;5087962;28;20241;-76
2022/04/29 00:21:50;;;;;;;10.32;8.40;;;;;;;10.47;89.30;63075.19;5103836;28;20250;-75
2022/04/29 00:24:17;;;;;;;9.43;8.07;;;;;;;10.53;89.71;63083.44;5086367;28;20216;-75
2022/04/29 00:26:46;;;;;;;10.10;8.43;;;;;;;10.49;89.54;63079.81;5083245;28;20197;-75
2022/04/29 00:29:13;;;;;;;9.50;7.60;;;;;;;10.53;89.89;63086.00;5084837;28;20238;-75
2022/04/29 00:31:39;;;;;;;10.25;8.23;;;;;;;10.49;90.03;63077.78;5104438;28;20203;-74
2022/04/29 00:34:07;;;;;;;8.57;7.72;;;;;;;10.48;90.05;63076.75;5090164;28;20306;-75
2022/04/29 00:36:34;;;;;;;10.52;8.02;;;;;;;10.41;90.85;63068.97;5097067;28;20285;-76
2022/04/29 00:39:00;;;;;;;9.85;7.68;;;;;;;10.46;90.41;63079.78;5079658;28;20591;-74
2022/04/29 00:41:27;;;;;;;9.32;7.93;;;;;;;10.44;90.87;63074.63;5083221;28;20227;-75
2022/04/29 00:44:04;;;;;;;9.32;8.15;;;;;;;10.46;91.00;63074.69;5080577;28;20507;-75
2022/04/29 00:46:34;;;;;;;10.50;8.05;;;;;;;10.42;90.60;63075.63;5084408;28;20196;-74
2022/04/29 00:49:01;;;;;;;9.50;8.18;;;;;;;10.44;90.12;63074.63;5083824;28;20227;-76
2022/04/29 00:51:28;;;;;;;11.00;8.63;;;;;;;10.37;92.00;63072.50;5082979;28;20378;-75
2022/04/29 00:53:56;;;;;;;9.45;7.75;;;;;;;10.26;93.34;63050.91;5083049;28;20232;-75
2022/04/29 00:56:24;;;;;;;11.25;9.07;;;;;;;10.36;93.22;63066.34;5086134;28;20457;-76
2022/04/29 00:58:56;;;;;;;9.60;7.93;;;;;;;10.39;92.78;63072.00;5099046;28;20224;-76
2022/04/29 01:01:26;;;;;;;11.15;9.18;;;;;;;10.33;93.16;63063.78;5085825;28;20223;-75
2022/04/29 01:03:54;;;;;;;12.00;8.75;;;;;;;10.20;93.75;63050.31;5083100;28;20533;-75
2022/04/29 01:06:22;;;;;;;10.18;8.73;;;;;;;10.21;94.21;63048.81;5083483;28;20201;-74
2022/04/29 01:08:48;;;;;;;14.50;8.98;;;;;;;10.05;95.37;63034.25;5083243;28;20221;-76
2022/04/29 01:11:15;;;;;;;9.75;8.38;;;;;;;10.10;94.52;63039.97;5082992;28;20200;-75
2022/04/29 01:13:42;;;;;;;10.07;8.63;;;;;;;10.15;94.27;63047.16;5077129;28;20225;-75
2022/04/29 01:16:09;;;;;;;9.88;8.02;;;;;;;10.13;94.12;63042.56;5065156;28;20240;-75
2022/04/29 01:18:38;;;;;;;8.82;7.90;;;;;;;10.11;94.30;63040.50;5073229;28;20217;-75
2022/04/29 01:21:06;;;;;;;11.52;8.65;;;;;;;10.14;93.64;63043.59;5084362;28;20208;-75
2022/04/29 01:23:35;;;;;;;10.48;7.82;;;;;;;10.16;93.68;63046.16;5085057;28;20217;-74
2022/04/29 01:26:02;;;;;;;8.70;7.82;;;;;;;10.16;93.14;63048.72;5084461;28;20231;-76
2022/04/29 01:28:30;;;;;;;9.85;8.15;;;;;;;10.09;93.54;63033.84;5082391;28;20227;-75
2022/04/29 01:30:58;;;;;;;9.13;7.63;;;;;;;10.03;93.23;63035.25;5074556;28;20266;-76
2022/04/29 01:33:26;;;;;;;10.38;8.07;;;;;;;10.01;94.05;63035.72;5090457;28;20273;-75
2022/04/29 01:35:53;;;;;;;9.23;7.85;;;;;;;10.10;92.24;63039.44;5104179;28;20232;-74
2022/04/29 01:38:19;;;;;;;11.85;7.60;;;;;;;10.18;92.13;63042.66;5092476;28;20220;-75
2022/04/29 01:40:48;;;;;;;10.13;7.97;;;;;;;10.21;91.79;63048.81;5088006;28;20208;-75
2022/04/29 01:43:15;;;;;;;7.28;6.40;;;;;;;9.96;93.78;63024.94;5096414;28;20224;-76
2022/04/29 01:45:41;;;;;;;9.35;7.35;;;;;;;9.79;95.53;63007.88;5097091;28;20204;-76
2022/04/29 01:48:08;;;;;;;8.93;8.02;;;;;;;9.83;96.36;63012.03;5103723;28;20530;-75
2022/04/29 01:50:35;;;;;;;8.38;7.32;;;;;;;9.81;96.52;63011.97;5101010;28;20245;-75
2022/04/29 01:53:02;;;;;;;8.15;7.28;;;;;;;9.99;94.71;63026.03;5105961;28;20223;-76
2022/04/29 01:55:28;;;;;;;9.75;8.23;;;;;;;9.94;95.25;63023.41;5092093;28;20197;-76
2022/04/29 01:57:57;;;;;;;9.07;7.30;;;;;;;9.94;95.92;63025.44;5090462;28;20330;-75
2022/04/29 02:00:24;;;;;;;9.15;8.18;;;;;;;10.00;96.11;63029.63;5094314;28;20298;-75
2022/04/29 02:02:51;;;;;;;9.45;6.97;;;;;;;10.02;95.83;63031.16;5102675;28;20259;-76
2022/04/29 02:05:18;;;;;;;8.27;7.40;;;;;;;9.91;96.98;63022.31;5109050;28;20462;-75
2022/04/29 02:07:45;;;;;;;7.78;6.30;;;;;;;9.93;96.89;63017.28;5110634;28;20231;-76
2022/04/29 02:10:13;;;;;;;13.95;8.18;;;;;;;9.75;98.79;63003.75;5094924;28;20250;-75
2022/04/29 02:12:40;;;;;;;9.38;7.50;;;;;;;9.72;98.67;63003.19;5099208;28;20268;-75
2022/04/29 02:15:09;;;;;;;9.63;7.70;;;;;;;9.65;99.83;62998.50;5093379;28;20230;-75
2022/04/29 02:17:35;;;;;;;9.73;8.18;;;;;;;9.67;99.70;62992.41;5092631;28;20243;-76
2022/04/29 02:20:02;;;;;;;8.75;7.57;;;;;;;9.54;100.00;62979.50;5088199;28;20218;-76
2022/04/29 02:22:29;;;;;;;12.20;9.45;;;;;;;9.48;100.00;62972.75;5095277;28;20220;-75
2022/04/29 02:24:56;;;;;;;9.38;8.25;;;;;;;9.62;100.00;62994.88;5090510;28;20439;-75
2022/04/29 02:27:22;;;;;;;11.43;8.82;;;;;;;9.73;100.00;63001.16;5097360;28;20220;-75
2022/04/29 02:29:49;;;;;;;9.75;8.23;;;;;;;9.58;100.00;62985.66;5089454;28;20272;-76
2022/04/29 02:32:18;;;;;;;13.43;8.25;;;;;;;9.44;100.00;62968.63;5101794;28;20234;-75
2022/04/29 02:34:45;;;;;;;11.75;8.00;;;;;;;9.53;100.00;62980.47;5090300;28;20387;-74
2022/04/29 02:37:11;;;;;;;10.05;8.48;;;;;;;9.56;100.00;62984.09;5088006;28;20240;-75
2022/04/29 02:39:38;;;;;;;10.70;8.30;;;;;;;9.63;100.00;62993.38;5087221;28;20386;-74
2022/04/29 02:42:07;;;;;;;10.23;8.75;;;;;;;9.38;100.00;62965.50;5086390;28;20205;-76
2022/04/29 02:44:33;;;;;;;13.25;8.80;;;;;;;9.38;100.00;62964.97;5096332;28;20199;-75
2022/04/29 02:47:09;;;;;;;11.95;8.73;;;;;;;9.38;100.00;62962.94;5092344;28;20599;-74
2022/04/29 02:49:39;;;;;;;11.35;9.23;;;;;;;9.34;100.00;62961.88;5087914;28;20253;-75
2022/04/29 02:52:07;;;;;;;10.30;9.27;;;;;;;9.23;100.00;62947.94;5087191;28;20204;-76
2022/04/29 02:54:33;;;;;;;12.15;9.30;;;;;;;9.45;100.00;62972.22;5084046;28;20235;-75
2022/04/29 02:57:00;;;;;;;12.82;9.32;;;;;;;9.56;100.00;62981.56;5101417;28;20235;-74
2022/04/29 02:59:27;;;;;;;11.85;9.23;;;;;;;9.44;100.00;62971.19;5095950;28;20263;-76
2022/04/29 03:01:54;;;;;;;10.20;8.60;;;;;;;9.55;100.00;62985.59;5089178;28;20208;-76
2022/04/29 03:04:21;;;;;;;10.48;8.35;;;;;;;9.54;100.00;62984.06;5085824;28;20246;-75
2022/04/29 03:06:49;;;;;;;10.18;8.65;;;;;;;9.62;100.00;62989.78;5085407;28;20233;-75
2022/04/29 03:09:16;;;;;;;12.05;8.85;;;;;;;9.69;100.00;62994.47;5084341;28;20212;-75
2022/04/29 03:11:43;;;;;;;9.50;7.68;;;;;;;9.69;100.00;62995.00;5084643;28;20208;-76
2022/04/29 03:14:10;;;;;;;10.63;7.90;;;;;;;9.83;100.00;63014.56;5088821;28;20232;-74
2022/04/29 03:16:37;;;;;;;9.85;7.10;;;;;;;9.59;100.00;62986.69;5090100;28;20265;-75
2022/04/29 03:19:04;;;;;;;8.60;7.28;;;;;;;9.46;100.00;62973.75;5104254;28;20419;-77
2022/04/29 03:21:33;;;;;;;8.18;7.25;;;;;;;9.59;100.00;62987.22;5104270;28;20208;-75
2022/04/29 03:24:01;;;;;;;10.52;7.45;;;;;;;9.68;100.00;62999.03;5059216;28;1185770;-76
2022/04/29 03:26:28;;;;;;;9.45;7.20;;;;;;;9.62;100.00;62992.84;5092161;28;20235;-75
2022/04/29 03:28:55;;;;;;;7.88;6.90;;;;;;;9.61;100.00;62989.25;5084628;28;20274;-74
2022/04/29 03:31:22;;;;;;;7.95;6.43;;;;;;;9.71;100.00;62996.56;5103606;28;20204;-75
2022/04/29 03:33:49;;;;;;;6.53;5.93;;;;;;;9.74;100.00;63005.25;5091874;28;20257;-76
2022/04/29 03:36:16;;;;;;;16.52;10.82;;;;;;;9.81;100.00;63009.44;5085773;28;20197;-75
2022/04/29 03:38:43;;;;;;;5.95;5.35;;;;;;;9.64;100.00;62992.38;5098102;28;20267;-76
2022/04/29 03:41:12;;;;;;;7.13;6.10;;;;;;;9.72;100.00;62995.03;5084059;28;20201;-75
2022/04/29 03:43:39;;;;;;;6.65;6.10;;;;;;;9.76;100.00;63004.78;5083624;28;20287;-76
2022/04/29 03:46:06;;;;;;;8.15;6.43;;;;;;;9.82;100.00;63010.97;5097090;28;20546;-76
2022/04/29 03:49:35;;;;;;;6.22;5.63;;;;;;;9.89;100.00;63013.13;5088720;28;20377;-75
2022/04/29 03:51:20;;;;;;;8.00;7.10;;;;;;;9.85;100.00;63011.56;5104726;28;20199;-75
2022/04/29 03:53:48;;;;;;;6.50;5.82;;;;;;;9.94;100.00;63023.41;5103820;28;20247;-76
2022/04/29 03:56:17;;;;;;;6.82;5.70;;;;;;;9.99;100.00;63030.59;5086062;28;20203;-76
2022/04/29 03:58:44;;;;;;;8.00;6.47;;;;;;;10.01;100.00;63028.09;5082513;28;20548;-75
2022/04/29 04:01:12;;;;;;;7.00;6.30;;;;;;;10.06;100.00;63033.25;5084285;28;20205;-76
2022/04/29 04:03:40;;;;;;;7.32;6.07;;;;;;;9.91;100.00;63017.22;5083076;28;20226;-77
2022/04/29 04:08:51;;;;;;;5.70;5.20;;;;;;;9.88;100.00;63017.19;5087011;28;20230;-76
2022/04/29 04:11:19;;;;;;;7.15;6.45;;;;;;;9.89;100.00;63018.22;5096669;28;20215;-75
2022/04/29 04:13:46;;;;;;;6.32;5.70;;;;;;;9.77;100.00;63008.34;5103954;28;20224;-76
2022/04/29 04:16:13;;;;;;;8.45;7.47;;;;;;;9.53;100.00;62981.00;5098481;28;20441;-75
2022/04/29 04:18:40;;;;;;;7.68;6.88;;;;;;;9.51;100.00;62981.47;5083253;28;20227;-76
2022/04/29 04:21:07;;;;;;;7.68;6.88;;;;;;;9.55;100.00;62980.53;5084226;28;20204;-78
2022/04/29 04:23:34;;;;;;;8.68;6.00;;;;;;;9.40;100.00;62969.59;5090670;28;20220;-77
2022/04/29 04:26:01;;;;;;;8.95;7.38;;;;;;;9.34;100.00;62964.41;5097314;28;20237;-76
2022/04/29 04:28:29;;;;;;;10.93;8.00;;;;;;;9.42;100.00;62972.19;5088895;28;20221;-76
2022/04/29 04:30:56;;;;;;;9.77;8.23;;;;;;;9.28;100.00;62958.19;5104299;28;20574;-76
2022/04/29 04:33:23;;;;;;;10.55;8.02;;;;;;;9.37;100.00;62966.47;5103546;28;20230;-76
2022/04/29 04:35:50;;;;;;;12.60;7.93;;;;;;;9.55;100.00;62985.59;5103706;28;20212;-76
2022/04/29 04:38:17;;;;;;;13.07;8.25;;;;;;;9.81;100.00;63007.41;5084952;28;20238;-75
2022/04/29 04:40:44;;;;;;;7.53;6.50;;;;;;;9.72;100.00;62998.09;5082675;28;20197;-76
2022/04/29 04:43:11;;;;;;;11.02;7.47;;;;;;;9.89;100.00;63017.69;5083074;28;20432;-77
2022/04/29 04:45:39;;;;;;;8.07;6.90;;;;;;;10.11;100.00;63041.00;5082932;28;20551;-76
2022/04/29 04:48:07;;;;;;;8.48;7.38;;;;;;;10.17;100.00;63044.16;5092836;28;20224;-75
2022/04/29 04:50:34;;;;;;;11.55;8.18;;;;;;;10.35;100.00;63068.38;5082966;28;20204;-76
2022/04/29 04:53:01;;;;;;;7.47;6.68;;;;;;;10.33;100.00;63066.31;5084746;28;20219;-77
2022/04/29 04:55:27;;;;;;;7.72;6.93;;;;;;;10.38;100.00;63063.34;5103436;28;20203;-76
2022/04/29 04:57:54;;;;;;;7.85;7.05;;;;;;;10.57;100.00;63085.53;5088160;28;20282;-75
2022/04/29 05:00:21;;;;;;;10.68;7.40;;;;;;;10.43;100.00;63076.66;5080699;28;20223;-75
2022/04/29 05:02:50;;;;;;;8.13;7.20;;;;;;;10.57;100.00;63088.09;5089547;28;20221;-75
2022/04/29 05:05:17;;;;;;;8.63;7.50;;;;;;;10.27;100.00;63057.56;5083307;28;20204;-75
2022/04/29 05:07:44;;;;;;;8.35;7.40;;;;;;;10.22;100.00;63054.41;5085764;28;20251;-75
2022/04/29 05:10:13;;;;;;;9.27;7.03;;;;;;;10.35;100.00;63063.28;5087355;28;20431;-75
2022/04/29 05:12:41;;;;;;;10.23;8.13;;;;;;;10.35;100.00;63067.88;5082295;28;20514;-74
2022/04/29 05:15:09;;;;;;;11.13;7.68;;;;;;;10.26;100.00;63056.00;5082258;28;20212;-77
2022/04/29 05:17:38;;;;;;;13.23;9.45;;;;;;;10.00;100.00;63029.09;5080441;28;20329;-73
2022/04/29 05:20:08;;;;;;;15.25;10.70;;;;;;;10.32;100.00;63065.28;5082513;28;20192;-74
2022/04/29 05:22:35;;;;;;;19.20;9.77;;;;;;;10.12;100.00;63044.59;5080937;28;20270;-76
2022/04/29 05:25:02;;;;;;;13.02;10.20;;;;;;;9.93;100.00;63019.81;5084523;28;20205;-75
2022/04/29 05:27:29;;;;;;;12.88;10.18;;;;;;;10.15;100.00;63044.63;5082551;28;20266;-75
2022/04/29 05:29:55;;;;;;;12.05;9.85;;;;;;;10.24;100.00;63053.94;5082655;28;20393;-76
2022/04/29 05:32:23;;;;;;;10.55;9.00;;;;;;;10.45;100.00;63073.13;5078100;28;20284;-75
2022/04/29 05:34:50;;;;;;;11.07;8.70;;;;;;;10.62;100.00;63095.28;5075537;28;20189;-75
2022/04/29 05:37:18;;;;;;;10.82;8.32;;;;;;;10.67;100.00;63095.38;5083385;28;20223;-76
2022/04/29 05:42:30;;;;;;;10.20;7.78;;;;;;;10.34;100.00;63066.81;5068715;28;20289;-76
2022/04/29 05:44:57;;;;;;;11.18;8.07;;;;;;;10.78;100.00;63109.84;5076604;28;20199;-75
2022/04/29 05:47:23;;;;;;;12.60;9.02;;;;;;;11.15;100.00;63145.59;5082546;28;20224;-75
2022/04/29 05:49:50;;;;;;;9.50;8.38;;;;;;;10.96;100.00;63122.88;5080891;28;20386;-76
2022/04/29 05:52:19;;;;;;;11.68;8.43;;;;;;;11.17;100.00;63147.13;5080711;28;20221;-76
2022/04/29 05:54:46;;;;;;;11.18;8.15;;;;;;;11.37;99.22;63170.41;5082419;28;20525;-77
2022/04/29 05:57:13;;;;;;;11.55;9.15;;;;;;;11.12;100.00;63144.50;5076358;28;20236;-76
2022/04/29 05:59:40;;;;;;;11.32;8.70;;;;;;;10.71;100.00;63102.59;5078313;28;20216;-75
2022/04/29 06:02:08;;;;;;;13.18;8.80;;;;;;;10.99;100.00;63131.06;5080177;28;20221;-75
2022/04/29 06:04:35;;;;;;;11.48;9.25;;;;;;;11.20;100.00;63152.81;5082608;28;20205;-77
2022/04/29 06:07:02;;;;;;;11.02;8.98;;;;;;;11.28;100.00;63161.59;5081248;28;20197;-76
2022/04/29 06:09:30;;;;;;;11.82;8.75;;;;;;;11.62;99.32;63193.75;5070534;28;20213;-76
2022/04/29 06:11:57;;;;;;;11.63;7.75;;;;;;;11.73;97.22;63209.75;5077590;28;20196;-74
2022/04/29 06:14:23;;;;;;;9.57;7.60;;;;;;;11.79;96.58;63211.38;5081820;28;20234;-75
2022/04/29 06:16:50;;;;;;;11.40;8.15;;;;;;;11.96;94.91;63231.03;5080587;28;20213;-75
2022/04/29 06:19:17;;;;;;;9.18;7.82;;;;;;;11.87;95.57;63219.69;5080548;28;20236;-74
2022/04/29 06:21:44;;;;;;;11.43;8.52;;;;;;;11.96;95.63;63231.03;5086221;28;20196;-75
2022/04/29 06:24:10;;;;;;;9.35;8.45;;;;;;;12.08;94.40;63246.03;5083859;28;20274;-76
2022/04/29 06:26:39;;;;;;;9.10;7.85;;;;;;;11.91;95.03;63223.31;5079179;28;20220;-75
2022/04/29 06:29:05;;;;;;;10.57;8.65;;;;;;;11.62;96.36;63193.75;5085515;28;20216;-76
2022/04/29 06:31:32;;;;;;;11.48;9.80;;;;;;;10.96;100.00;63125.91;5085542;28;20196;-76
2022/04/29 06:33:59;;;;;;;9.75;8.45;;;;;;;10.96;100.00;63125.41;5081224;28;20212;-77
2022/04/29 06:36:26;;;;;;;15.57;9.80;;;;;;;10.69;100.00;63100.50;5085881;28;20200;-76
2022/04/29 06:38:53;;;;;;;9.73;8.13;;;;;;;11.16;100.00;63146.09;5086170;28;20266;-76
2022/04/29 06:41:20;;;;;;;10.63;8.57;;;;;;;11.26;100.00;63164.63;5085256;28;20197;-75
2022/04/29 06:43:48;;;;;;;12.20;9.18;;;;;;;11.45;98.87;63176.13;5072206;28;20255;-75
2022/04/29 06:46:15;;;;;;;15.95;7.80;;;;;;;11.65;96.32;63198.91;5065532;28;20228;-75
2022/04/29 06:48:42;;;;;;;12.13;8.38;;;;;;;10.98;99.81;63130.00;5066418;28;20228;-76
2022/04/29 06:51:09;;;;;;;10.73;8.70;;;;;;;11.07;100.00;63139.84;5069316;28;20204;-77
2022/04/29 06:53:40;;;;;;;9.10;7.15;;;;;;;10.98;98.12;63128.00;5084419;28;20256;-76
2022/04/29 06:56:07;;;;;;;8.38;7.50;;;;;;;11.44;96.72;63178.16;5087240;28;20204;-75
2022/04/29 06:58:34;;;;;;;10.13;7.95;;;;;;;11.87;95.17;63224.78;5086279;28;20232;-76
2022/04/29 07:01:02;;;;;;;9.18;8.23;;;;;;;12.11;91.91;63244.03;5084727;28;20219;-76
2022/04/29 07:03:29;;;;;;;10.70;7.57;;;;;;;12.18;90.74;63253.84;5085796;28;20213;-76
2022/04/29 07:05:59;;;;;;;9.73;8.65;;;;;;;12.52;89.28;63292.16;5084998;28;20192;-75
2022/04/29 07:08:25;;;;;;;11.20;7.90;;;;;;;12.84;86.88;63319.69;5084138;28;20240;-76
2022/04/29 07:10:52;;;;;;;9.50;8.07;;;;;;;12.58;87.73;63292.75;5083622;28;20242;-75
2022/04/29 07:13:19;;;;;;;8.68;7.40;;;;;;;12.92;84.01;63327.47;5083681;28;20213;-76
2022/04/29 07:15:48;;;;;;;9.43;7.47;;;;;;;13.21;82.32;63360.13;5084584;28;20192;-76
2022/04/29 07:18:17;;;;;;;7.32;6.63;;;;;;;13.45;76.97;63385.03;5081207;28;20236;-76
2022/04/29 07:20:44;;;;;;;7.57;6.97;;;;;;;12.95;80.71;63331.13;5081726;28;20192;-76
2022/04/29 07:23:11;;;;;;;11.70;8.15;;;;;;;12.58;82.36;63295.81;5085607;28;20366;-76
2022/04/29 07:25:38;;;;;;;7.70;6.90;;;;;;;12.36;84.86;63270.47;5084322;28;20205;-73
2022/04/29 07:28:05;;;;;;;8.70;7.55;;;;;;;12.91;80.48;63326.44;5085320;28;20229;-75
2022/04/29 07:30:32;;;;;;;11.30;7.15;;;;;;;12.66;82.85;63304.13;5085994;28;20239;-76
2022/04/29 07:32:59;;;;;;;8.15;7.30;;;;;;;12.65;84.28;63303.06;5084411;28;20212;-74
2022/04/29 07:43:40;;;;;;;9.85;6.75;;;;;;;13.68;72.16;63411.97;5084099;28;20261;-75
2022/04/29 07:46:10;;;;;;;8.57;7.75;;;;;;;13.61;75.17;63402.16;5081677;28;20204;-75
2022/04/29 07:48:37;;;;;;;10.57;7.55;;;;;;;13.94;72.20;63430.78;5083229;28;20228;-75
2022/04/29 07:51:06;;;;;;;9.40;7.57;;;;;;;13.56;74.49;63391.34;5083798;28;20201;-76
2022/04/29 07:53:34;;;;;;;9.98;8.30;;;;;;;13.97;72.96;63443.59;5082760;28;20224;-75
2022/04/29 07:56:01;;;;;;;7.45;6.68;;;;;;;14.28;69.13;63468.13;5082008;28;20196;-76
2022/04/29 07:58:28;;;;;;;8.82;7.43;;;;;;;14.37;68.64;63478.00;5081188;28;20240;-76
2022/04/29 08:00:55;;;;;;;10.63;6.82;;;;;;;14.12;69.13;63457.13;5079748;28;20255;-75
2022/04/29 08:03:22;;;;;;;7.68;6.80;;;;;;;14.01;71.05;63443.16;5077277;28;20220;-75
2022/04/29 08:05:49;;;;;;;8.35;7.43;;;;;;;14.07;70.89;63449.38;5082914;28;20342;-76
2022/04/29 08:08:19;;;;;;;8.50;7.57;;;;;;;14.14;71.24;63459.22;5083452;28;20280;-75
2022/04/29 08:10:45;;;;;;;8.90;7.82;;;;;;;13.93;72.30;63439.97;5084649;28;20192;-75
2022/04/29 08:13:13;;;;;;;8.80;7.53;;;;;;;13.95;72.58;63436.94;5075205;28;20263;-76
2022/04/29 08:15:43;;;;;;;8.95;7.38;;;;;;;14.06;71.72;63442.72;5076951;28;20205;-75
2022/04/29 08:18:12;;;;;;;10.73;7.38;;;;;;;14.07;71.08;63451.94;5083812;28;20228;-76
2022/04/29 08:20:39;;;;;;;9.73;8.10;;;;;;;13.81;72.39;63422.91;5083977;28;20185;-75
2022/04/29 08:23:06;;;;;;;9.18;7.78;;;;;;;13.62;75.00;63405.22;5068708;28;20534;-75
2022/04/29 08:25:35;;;;;;;10.93;7.40;;;;;;;13.91;73.81;63435.34;5078571;28;20208;-74
2022/04/29 08:28:02;;;;;;;8.38;7.05;;;;;;;14.08;72.65;63452.97;5083225;28;20232;-75
2022/04/29 08:30:30;;;;;;;9.93;7.63;;;;;;;14.25;70.50;63468.09;5081654;28;20201;-76
2022/04/29 08:32:59;;;;;;;9.27;7.03;;;;;;;14.26;70.60;63471.16;5083244;28;20228;-76
2022/04/29 08:35:26;;;;;;;13.00;7.68;;;;;;;13.94;72.82;63435.91;5084301;28;20259;-74
2022/04/29 08:37:54;;;;;;;7.95;7.05;;;;;;;13.94;72.18;63433.34;5083132;28;20231;-76
2022/04/29 08:40:21;;;;;;;8.60;6.05;;;;;;;14.26;67.51;63466.03;5081562;28;20196;-75
2022/04/29 08:42:50;;;;;;;6.82;6.13;;;;;;;13.57;68.82;63398.00;5081340;28;20258;-76
2022/04/29 08:45:18;;;;;;;6.85;6.15;;;;;;;13.61;70.20;63399.09;5086053;28;20200;-75
2022/04/29 08:47:47;;;;;;;7.82;7.03;;;;;;;13.93;67.25;63432.81;5082935;28;20212;-77
2022/04/29 08:50:16;;;;;;;6.68;6.00;;;;;;;14.30;64.70;63467.66;5075314;28;20301;-76
2022/04/29 08:52:44;;;;;;;7.95;7.15;;;;;;;13.14;71.29;63347.75;5082633;28;20222;-75
2022/04/29 09:00:42;;;;;;;6.85;6.10;;;;;;;13.91;67.54;63433.28;5063318;28;20188;-75
2022/04/29 09:03:13;;;;;;;7.85;7.05;;;;;;;14.11;66.08;63450.47;5063263;28;20217;-75
2022/04/29 09:05:40;;;;;;;7.13;6.43;;;;;;;13.97;66.78;63438.47;5068443;28;20201;-75
2022/04/29 09:08:07;;;;;;;12.60;6.65;;;;;;;13.87;66.48;63429.13;5082781;28;20216;-74
2022/04/29 09:10:36;;;;;;;7.22;6.43;;;;;;;13.92;65.55;63441.50;5082121;28;20197;-73
2022/04/29 09:13:15;;;;;;;6.65;5.78;;;;;;;14.10;63.60;63457.63;5083613;28;20220;-75
2022/04/29 09:15:48;;;;;;;10.32;6.10;;;;;;;13.48;65.61;63383.56;5075594;28;20204;-75
2022/04/29 09:18:15;;;;;;;6.80;6.07;;;;;;;13.35;67.73;63374.66;5076004;28;20250;-76
2022/04/29 09:20:42;;;;;;;10.20;6.50;;;;;;;13.99;64.75;63443.66;5086741;28;20219;-74
2022/04/29 09:23:10;;;;;;;6.72;5.47;;;;;;;14.52;62.60;63496.13;5086669;28;20236;-75
2022/04/29 09:25:37;;;;;;;6.60;6.00;;;;;;;14.91;60.39;63536.13;5077279;28;20251;-75
2022/04/29 09:28:06;;;;;;;6.95;6.30;;;;;;;15.25;57.89;63570.94;5078250;28;20220;-76
2022/04/29 09:30:39;;;;;;;8.32;6.15;;;;;;;15.32;57.49;63583.88;5086758;28;20265;-76
2022/04/29 09:33:08;;;;;;;5.18;4.68;;;;;;;15.61;57.06;63608.38;5084555;28;20285;-75
2022/04/29 09:35:42;;;;;;;6.40;5.75;;;;;;;14.70;58.17;63516.88;5085675;28;20254;-76
2022/04/29 09:40:57;;;;;;;5.72;5.30;;;;;;;14.77;59.84;63522.09;5085449;28;20191;-74
2022/04/29 09:43:38;;;;;;;6.90;6.20;;;;;;;14.44;59.61;63484.75;5084948;28;20287;-75
2022/04/29 09:46:18;;;;;;;5.78;5.28;;;;;;;13.96;61.59;63432.34;5082822;28;20219;-76
2022/04/29 09:48:59;;;;;;;8.13;6.05;;;;;;;14.55;60.05;63499.25;5080149;28;20283;-75
2022/04/29 09:51:45;;;;;;;6.50;5.90;;;;;;;15.10;58.62;63555.84;5064770;28;20209;-76
2022/04/29 09:54:16;;;;;;;8.88;5.97;;;;;;;15.22;57.63;63570.91;5067537;28;20270;-75
2022/04/29 09:56:44;;;;;;;12.95;7.00;;;;;;;14.58;61.11;63499.78;5068713;28;20200;-74
2022/04/29 09:59:11;;;;;;;8.98;6.03;;;;;;;15.16;58.52;63561.56;5080033;28;20250;-75
2022/04/29 10:01:42;;;;;;;6.03;5.40;;;;;;;14.72;59.04;63511.28;5088032;28;20412;-74
2022/04/29 10:04:11;;;;;;;7.93;5.88;;;;;;;15.05;59.69;63550.66;5083418;28;20218;-75
2022/04/29 10:06:41;;;;;;;9.20;6.15;;;;;;;15.12;58.77;63554.88;5066544;28;20196;-75
2022/04/29 10:09:12;;;;;;;5.80;5.30;;;;;;;15.31;58.07;63580.25;5076497;28;20239;-75
2022/04/29 10:11:42;;;;;;;7.93;5.63;;;;;;;15.61;57.58;63608.91;5085166;28;20238;-74
2022/04/29 10:14:09;;;;;;;7.25;6.45;;;;;;;15.74;55.86;63622.41;5075499;28;20227;-75
2022/04/29 10:16:39;;;;;;;6.13;5.53;;;;;;;16.42;53.23;63689.50;5085235;28;20192;-75
2022/04/29 10:22:00;;;;;;;6.25;5.65;;;;;;;15.52;54.45;63601.56;5083892;28;20260;-75
2022/04/29 10:24:28;;;;;;;5.82;5.25;;;;;;;15.70;54.26;63617.72;5066118;28;20204;-76
2022/04/29 10:26:55;;;;;;;6.28;5.43;;;;;;;15.08;54.13;63561.50;5081766;28;20230;-75
2022/04/29 10:29:23;;;;;;;6.88;6.07;;;;;;;15.25;55.76;63566.34;5084627;28;20192;-75
2022/04/29 10:32:06;;;;;;;5.80;5.28;;;;;;;15.44;54.70;63593.78;5077763;28;20242;-74
2022/04/29 10:34:36;;;;;;;5.63;5.13;;;;;;;15.83;52.87;63631.25;5086860;28;20224;-75
2022/04/29 10:37:10;;;;;;;5.35;4.95;;;;;;;16.38;50.92;63685.34;5086468;28;20199;-76
2022/04/29 10:39:37;;;;;;;5.80;5.20;;;;;;;16.10;51.16;63659.84;5077341;28;20397;-75
2022/04/29 10:42:06;;;;;;;6.60;5.20;;;;;;;16.49;50.91;63702.47;5083121;28;20262;-74
2022/04/29 10:44:33;;;;;;;6.63;6.03;;;;;;;15.89;52.24;63638.00;5085816;28;20481;-74
2022/04/29 10:47:26;;;;;;;6.10;5.50;;;;;;;16.42;50.98;63695.19;5084883;28;20252;-76
2022/04/29 10:50:36;;;;;;;6.53;6.03;;;;;;;17.36;50.05;63789.91;5080755;28;20196;-76
2022/04/29 10:53:04;;;;;;;7.28;5.40;;;;;;;16.36;50.28;63685.84;5083886;28;20257;-76
2022/04/29 10:55:31;;;;;;;5.43;5.00;;;;;;;16.57;50.39;63707.69;5083528;28;20443;-74
2022/04/29 10:58:03;;;;;;;5.18;4.78;;;;;;;17.30;48.83;63783.69;5074799;28;20224;-75
2022/04/29 11:00:30;;;;;;;5.88;5.18;;;;;;;17.83;46.97;63838.88;5068229;28;20521;-75
2022/04/29 11:03:44;;;;;;;6.05;5.22;;;;;;;17.09;47.94;63761.81;5063533;28;20217;-75
2022/04/29 11:06:14;;;;;;;5.97;5.38;;;;;;;17.60;47.33;63814.41;5052790;28;20722;-74
2022/04/29 11:08:42;;;;;;;6.35;5.75;;;;;;;17.14;48.11;63775.25;5067098;28;20229;-74
2022/04/29 11:11:09;;;;;;;6.68;5.63;;;;;;;16.06;50.16;63655.16;5066428;28;20197;-75
2022/04/29 11:13:38;;;;;;;5.22;4.82;;;;;;;16.27;49.85;63682.16;5065414;28;20224;-75
2022/04/29 11:16:10;;;;;;;6.25;5.72;;;;;;;16.70;49.51;63719.19;5070126;28;20197;-74
2022/04/29 11:18:37;;;;;;;5.70;5.20;;;;;;;17.42;48.54;63795.66;5064161;28;20443;-74
2022/04/29 11:26:43;;;;;;;6.05;5.28;;;;;;;16.44;49.81;63692.13;5074726;28;20515;-76
2022/04/29 11:29:10;;;;;;;6.30;5.70;;;;;;;16.50;50.14;63700.94;5084917;28;20207;-75
2022/04/29 11:31:38;;;;;;;6.45;5.80;;;;;;;16.69;49.72;63723.28;5084189;28;20497;-76
2022/04/29 11:34:08;;;;;;;6.35;5.75;;;;;;;16.87;49.54;63739.44;5079951;28;20220;-74
2022/04/29 11:36:35;;;;;;;6.68;6.05;;;;;;;16.30;51.21;63674.47;5064849;28;20196;-75
2022/04/29 11:39:09;;;;;;;5.82;5.22;;;;;;;16.62;49.54;63710.34;5075897;28;20466;-75
2022/04/29 11:41:36;;;;;;;6.47;5.88;;;;;;;16.18;51.05;63668.16;5084986;28;20244;-75
2022/04/29 11:44:03;;;;;;;9.30;6.53;;;;;;;15.91;52.76;63639.56;5073093;28;20216;-76
2022/04/29 11:46:31;;;;;;;7.18;6.43;;;;;;;15.85;53.50;63638.47;5064556;28;20243;-74
2022/04/29 11:48:59;;;;;;;7.60;5.80;;;;;;;16.54;51.35;63704.59;5064109;28;20220;-75
2022/04/29 11:51:27;;;;;;;10.00;6.15;;;;;;;16.24;51.74;63676.44;5064899;28;20441;-75
2022/04/29 11:54:00;;;;;;;6.88;6.18;;;;;;;16.41;51.43;63691.06;5067741;28;20262;-74
2022/04/29 11:56:36;;;;;;;9.48;6.22;;;;;;;16.84;50.48;63736.31;5064182;28;20185;-75
2022/04/29 11:59:07;;;;;;;10.10;6.82;;;;;;;16.39;50.87;63686.41;5064274;28;20444;-74
2022/04/29 12:01:34;;;;;;;10.35;6.72;;;;;;;16.40;51.85;63692.56;5068725;28;20246;-76
2022/04/29 12:04:01;;;;;;;6.78;6.18;;;;;;;16.60;50.85;63715.97;5064329;28;20217;-75
2022/04/29 12:06:28;;;;;;;6.95;6.32;;;;;;;17.51;49.34;63802.47;5064010;28;20201;-75